Dades meteomassalio
Diari Summary for Noviembre 22, 2017 Units:  Metric    English   Both
« Previous Day
Next Day »
Diari Semanal Mensual Anual Personalitzat
  Maxima: Minima: Mijana:
Temperatura: 16.1 °C -3.9 °C 3.4 °C
Rosada: 1.4 °C -6.9 °C -3.8 °C
Humitat: 84 % 33 % 63 %
Velocitat del vent: 9.3 km/h 0.0 km/h 1.4 km/h
Racha vent: 9.3 km/h - -
Vent:- - SSE
Pressio: 1023.9 hPa 1017.8 hPa -
Pluja: 0.0 mm    
Historical Graphs
 
 
Tabular Data for Noviembre 22, 2017
Time Temperature Dew Point Pressure Wind Wind Speed Wind Gust Humidity Rainfall Rate (Hourly) solar Conditions
00:04 -1.1 °C -5.7 °C 1023.9 hPa WSW 5.6 km/h 5.6 km/h 71 % 0.0 mm 0.0 W/m2 CLR
00:14 -1.1 °C -5.7 °C 1023.6 hPa Calm     71 % 0.0 mm 0.0 W/m2 CLR
00:24 -1.1 °C -5.5 °C 1023.6 hPa Calm     72 % 0.0 mm 0.0 W/m2 CLR
00:34 -1.1 °C -5.3 °C 1023.6 hPa WSW 5.6 km/h 5.6 km/h 73 % 0.0 mm 0.0 W/m2 CLR
00:39 -1.1 °C -5.3 °C 1023.6 hPa WSW 3.7 km/h 3.7 km/h 73 % 0.0 mm 0.0 W/m2 CLR
00:44 -1.7 °C -6.1 °C 1023.6 hPa Calm     72 % 0.0 mm 0.0 W/m2 CLR
00:49 -1.7 °C -6.1 °C 1023.6 hPa WSW 4.8 km/h 4.8 km/h 72 % 0.0 mm 0.0 W/m2 CLR
00:55 -2.2 °C -6.4 °C 1023.6 hPa WSW 6.4 km/h 6.4 km/h 73 % 0.0 mm 0.0 W/m2 CLR
01:00 -1.7 °C -6.1 °C 1023.2 hPa WSW 9.3 km/h 9.3 km/h 72 % 0.0 mm 0.0 W/m2 CLR
01:05 -1.1 °C -5.5 °C 1023.6 hPa WSW 5.6 km/h 5.6 km/h 72 % 0.0 mm 0.0 W/m2 CLR
01:10 -1.1 °C -5.5 °C 1023.2 hPa West 5.6 km/h 5.6 km/h 72 % 0.0 mm 0.0 W/m2 CLR
01:15 -1.7 °C -6.1 °C 1023.2 hPa West 5.6 km/h 5.6 km/h 72 % 0.0 mm 0.0 W/m2 CLR
01:20 -1.7 °C -6.1 °C 1023.2 hPa Calm     72 % 0.0 mm 0.0 W/m2 CLR
01:25 -2.2 °C -6.4 °C 1023.2 hPa West 6.4 km/h 6.4 km/h 73 % 0.0 mm 0.0 W/m2 CLR
01:30 -2.2 °C -6.4 °C 1023.2 hPa WSW 5.6 km/h 5.6 km/h 73 % 0.0 mm 0.0 W/m2 CLR
01:35 -2.2 °C -6.4 °C 1022.9 hPa West 5.6 km/h 5.6 km/h 73 % 0.0 mm 0.0 W/m2 CLR
01:45 -2.8 °C -6.8 °C 1022.9 hPa Calm     74 % 0.0 mm 0.0 W/m2 CLR
01:50 -2.8 °C -6.8 °C 1022.9 hPa Calm     74 % 0.0 mm 0.0 W/m2 CLR
01:55 -2.8 °C -6.9 °C 1022.9 hPa Calm     73 % 0.0 mm 0.0 W/m2 CLR
02:00 -2.8 °C -6.9 °C 1022.9 hPa Calm     73 % 0.0 mm 0.0 W/m2 CLR
02:05 -2.2 °C -6.2 °C 1022.9 hPa Calm     74 % 0.0 mm 0.0 W/m2 CLR
02:10 -2.2 °C -6.1 °C 1022.9 hPa West 1.9 km/h 2.1 km/h 75 % 0.0 mm 0.0 W/m2 CLR
02:15 -2.2 °C -6.1 °C 1022.9 hPa Calm     75 % 0.0 mm 0.0 W/m2 CLR
02:20 -2.2 °C -6.1 °C 1022.9 hPa Calm     75 % 0.0 mm 0.0 W/m2 CLR
02:25 -2.2 °C -6.2 °C 1022.9 hPa Calm     74 % 0.0 mm 0.0 W/m2 CLR
02:30 -2.2 °C -6.1 °C 1022.9 hPa Calm     75 % 0.0 mm 0.0 W/m2 CLR
02:35 -2.2 °C -6.1 °C 1022.9 hPa Calm     75 % 0.0 mm 0.0 W/m2 CLR
02:40 -2.2 °C -6.1 °C 1022.9 hPa Calm     75 % 0.0 mm 0.0 W/m2 CLR
02:45 -2.2 °C -6.1 °C 1022.6 hPa Calm     75 % 0.0 mm 0.0 W/m2 CLR
02:50 -2.2 °C -5.9 °C 1022.6 hPa Calm     76 % 0.0 mm 0.0 W/m2 CLR
02:55 -2.2 °C -5.9 °C 1022.6 hPa Calm     76 % 0.0 mm 0.0 W/m2 CLR
03:05 -2.2 °C -5.9 °C 1022.6 hPa Calm     76 % 0.0 mm 0.0 W/m2 CLR
03:10 -2.2 °C -5.9 °C 1022.6 hPa Calm     76 % 0.0 mm 0.0 W/m2 CLR
03:25 -2.2 °C -5.9 °C 1022.9 hPa Calm     76 % 0.0 mm 0.0 W/m2 CLR
03:32 -2.2 °C -5.7 °C 1022.6 hPa WSW 3.7 km/h 3.7 km/h 77 % 0.0 mm 0.0 W/m2 CLR
03:37 -2.2 °C -5.7 °C 1022.6 hPa SW 3.7 km/h 3.7 km/h 77 % 0.0 mm 0.0 W/m2 CLR
03:42 -2.2 °C -5.7 °C 1022.6 hPa Calm     77 % 0.0 mm 0.0 W/m2 CLR
03:47 -2.2 °C -5.7 °C 1022.6 hPa Calm     77 % 0.0 mm 0.0 W/m2 CLR
03:52 -2.2 °C -5.6 °C 1022.2 hPa WSW 3.7 km/h 3.7 km/h 78 % 0.0 mm 0.0 W/m2 CLR
03:57 -2.8 °C -5.9 °C 1022.2 hPa West 6.4 km/h 6.4 km/h 79 % 0.0 mm 0.0 W/m2 CLR
04:02 -2.8 °C -5.9 °C 1021.9 hPa West 3.7 km/h 3.7 km/h 79 % 0.0 mm 0.0 W/m2 CLR
04:07 -2.8 °C -6.1 °C 1021.9 hPa Calm     78 % 0.0 mm 0.0 W/m2 CLR
04:12 -2.2 °C -5.6 °C 1021.9 hPa West 3.7 km/h 3.7 km/h 78 % 0.0 mm 0.0 W/m2 CLR
04:22 -2.8 °C -6.3 °C 1021.9 hPa Calm     77 % 0.0 mm 0.0 W/m2 CLR
04:35 -3.3 °C -6.6 °C 1021.9 hPa Calm     78 % 0.0 mm 0.0 W/m2 CLR
04:40 -3.3 °C -6.4 °C 1021.9 hPa Calm     79 % 0.0 mm 0.0 W/m2 CLR
04:41 -3.3 °C -6.6 °C 1021.9 hPa Calm     78 % 0.0 mm 0.0 W/m2 CLR
04:46 -3.3 °C -6.6 °C 1021.9 hPa Calm     78 % 0.0 mm 0.0 W/m2 CLR
04:51 -3.3 °C -6.4 °C 1021.9 hPa Calm     79 % 0.0 mm 0.0 W/m2 CLR
04:56 -3.3 °C -6.4 °C 1021.9 hPa Calm     79 % 0.0 mm 0.0 W/m2 CLR
05:16 -3.3 °C -6.3 °C 1021.9 hPa Calm     80 % 0.0 mm 0.0 W/m2 CLR
05:31 -3.3 °C -6.1 °C 1021.6 hPa West 5.6 km/h 5.6 km/h 81 % 0.0 mm 0.0 W/m2 CLR
05:41 -3.3 °C -6.1 °C 1021.6 hPa WSW 6.4 km/h 6.4 km/h 81 % 0.0 mm 0.0 W/m2 CLR
05:46 -2.8 °C -5.6 °C 1021.6 hPa WSW 3.7 km/h 3.7 km/h 81 % 0.0 mm 0.0 W/m2 CLR
05:51 -2.8 °C -5.7 °C 1021.6 hPa Calm     80 % 0.0 mm 0.0 W/m2 CLR
05:56 -2.8 °C -5.7 °C 1021.6 hPa Calm     80 % 0.0 mm 0.0 W/m2 CLR
06:01 -2.8 °C -5.6 °C 1021.6 hPa Calm     81 % 0.0 mm 0.0 W/m2 CLR
06:06 -3.3 °C -6.1 °C 1021.6 hPa WSW 3.7 km/h 3.7 km/h 81 % 0.0 mm 0.0 W/m2 CLR
06:11 -3.3 °C -6.1 °C 1021.6 hPa Calm     81 % 0.0 mm 0.0 W/m2 CLR
06:21 -3.3 °C -6.3 °C 1021.6 hPa Calm     80 % 0.0 mm 0.0 W/m2 CLR
06:26 -3.9 °C -6.7 °C 1021.2 hPa West 6.4 km/h 6.4 km/h 81 % 0.0 mm 0.0 W/m2 CLR
06:31 -3.9 °C -6.5 °C 1021.2 hPa Calm     82 % 0.0 mm 0.0 W/m2 CLR
06:36 -3.9 °C -6.5 °C 1021.2 hPa Calm     82 % 0.0 mm 0.0 W/m2 CLR
06:41 -3.9 °C -6.7 °C 1021.2 hPa Calm     81 % 0.0 mm 0.0 W/m2 CLR
06:51 -3.9 °C -6.5 °C 1021.2 hPa West 5.6 km/h 5.6 km/h 82 % 0.0 mm 0.0 W/m2 CLR
06:56 -3.9 °C -6.5 °C 1021.2 hPa WSW 5.6 km/h 5.6 km/h 82 % 0.0 mm 0.0 W/m2 CLR
07:01 -3.9 °C -6.5 °C 1021.2 hPa WSW 3.7 km/h   82 % 0.0 mm 0.0 W/m2 CLR
07:06 -3.3 °C -5.9 °C 1021.2 hPa Calm     82 % 0.0 mm 0.0 W/m2 CLR
07:11 -3.3 °C -5.9 °C 1021.2 hPa Calm     82 % 0.0 mm 0.0 W/m2 CLR
07:16 -3.9 °C -6.5 °C 1021.2 hPa Calm     82 % 0.0 mm 0.0 W/m2 CLR
07:21 -3.3 °C -5.8 °C 1021.2 hPa Calm     83 % 0.0 mm 0.0 W/m2 CLR
07:26 -3.3 °C -5.7 °C 1021.2 hPa WSW 5.6 km/h 5.6 km/h 84 % 0.0 mm 0.0 W/m2 CLR
07:31 -3.9 °C -6.2 °C 1020.9 hPa WSW 3.7 km/h 3.7 km/h 84 % 0.0 mm 0.0 W/m2 CLR
07:41 -3.9 °C -6.3 °C 1020.9 hPa Calm     83 % 0.0 mm 0.0 W/m2 CLR
07:46 -3.9 °C -6.3 °C 1021.2 hPa WSW 3.7 km/h 3.7 km/h 83 % 0.0 mm 0.0 W/m2 OVC
07:51 -3.3 °C -5.7 °C 1021.2 hPa West 5.6 km/h 5.6 km/h 84 % 0.0 mm 0.0 W/m2 OVC
07:56 -3.3 °C -5.8 °C 1021.2 hPa WSW 3.7 km/h 3.7 km/h 83 % 0.0 mm 5.0 W/m2 OVC
08:11 -3.9 °C -6.2 °C 1021.2 hPa Calm     84 % 0.0 mm 12.0 W/m2 BKN
08:17 -3.9 °C -6.2 °C 1021.2 hPa Calm     84 % 0.0 mm 14.0 W/m2 BKN
08:26 -3.3 °C -5.7 °C 1021.2 hPa Calm     84 % 0.0 mm 23.0 W/m2 BKN
08:32 -3.3 °C -5.7 °C 1021.2 hPa Calm     84 % 0.0 mm 30.0 W/m2 BKN
08:37 -3.3 °C -5.8 °C 1021.2 hPa Calm     83 % 0.0 mm 37.0 W/m2 BKN
08:42 -3.3 °C -5.8 °C 1021.2 hPa Calm     83 % 0.0 mm 47.0 W/m2 SCT
08:47 -3.3 °C -5.9 °C 1021.2 hPa Calm     82 % 0.0 mm 53.0 W/m2 SCT
08:57 -3.3 °C -6.3 °C 1021.6 hPa Calm     80 % 0.0 mm 90.0 W/m2 FEW
09:02 -3.3 °C -6.3 °C 1021.2 hPa Calm     80 % 0.0 mm 83.0 W/m2 FEW
09:07 -2.8 °C -5.9 °C 1021.6 hPa Calm     79 % 0.0 mm 118.0 W/m2 CLR
09:17 -2.2 °C -5.9 °C 1021.6 hPa Calm     76 % 0.0 mm 121.0 W/m2 CLR
09:22 -1.7 °C -5.5 °C 1021.6 hPa Calm     75 % 0.0 mm 162.0 W/m2 CLR
09:27 -1.1 °C -5.0 °C 1021.6 hPa Calm     75 % 0.0 mm 179.0 W/m2 CLR
09:32 -1.1 °C -5.2 °C 1021.6 hPa Calm     74 % 0.0 mm 172.0 W/m2 CLR
09:37 -1.1 °C -5.3 °C 1021.6 hPa Calm     73 % 0.0 mm 179.0 W/m2 CLR
09:42 -0.6 °C -5.2 °C 1021.6 hPa Calm     71 % 0.0 mm 221.0 W/m2 CLR
09:47 -0.6 °C -5.3 °C 1021.6 hPa Calm     70 % 0.0 mm 221.0 W/m2 CLR
09:57 0.0 °C -5.6 °C 1021.6 hPa Calm     66 % 0.0 mm 262.0 W/m2 CLR
10:02 0.6 °C -5.3 °C 1021.6 hPa Calm     65 % 0.0 mm 274.0 W/m2 CLR
10:07 1.1 °C -5.2 °C 1021.6 hPa Calm     63 % 0.0 mm 287.0 W/m2 CLR
10:12 1.1 °C -5.6 °C 1021.2 hPa Calm     61 % 0.0 mm 297.0 W/m2 CLR
10:13 1.7 °C -5.1 °C 1021.2 hPa Calm     61 % 0.0 mm 299.0 W/m2 CLR
10:28 2.8 °C -4.9 °C 1021.2 hPa Calm     57 % 0.0 mm 330.0 W/m2 CLR
10:33 3.3 °C -4.8 °C 1021.2 hPa Calm     55 % 0.0 mm 341.0 W/m2 CLR
10:38 3.9 °C -4.6 °C 1021.2 hPa Calm     54 % 0.0 mm 350.0 W/m2 CLR
10:43 4.4 °C -4.1 °C 1021.2 hPa Calm     54 % 0.0 mm 359.0 W/m2 CLR
10:48 5.6 °C -3.1 °C 1021.2 hPa Calm     54 % 0.0 mm 367.0 W/m2 CLR
10:53 6.1 °C -3.0 °C 1021.2 hPa Calm     52 % 0.0 mm 376.0 W/m2 CLR
10:58 6.7 °C -2.8 °C 1021.2 hPa Calm     51 % 0.0 mm 387.0 W/m2 CLR
11:03 7.2 °C -2.5 °C 1020.9 hPa Calm     50 % 0.0 mm 396.0 W/m2 CLR
11:08 7.8 °C -2.3 °C 1020.9 hPa Calm     49 % 0.0 mm 403.0 W/m2 CLR
11:18 8.3 °C -2.9 °C 1020.9 hPa Calm     45 % 0.0 mm 417.0 W/m2 CLR
11:23 9.4 °C -1.9 °C 1020.9 hPa Calm     45 % 0.0 mm 422.0 W/m2 CLR
11:28 10.0 °C -1.4 °C 1020.9 hPa Calm     45 % 0.0 mm 429.0 W/m2 CLR
11:38 10.6 °C -1.5 °C 1020.9 hPa Calm     43 % 0.0 mm 443.0 W/m2 CLR
12:03 12.2 °C -0.3 °C 1020.5 hPa Calm     42 % 0.0 mm 462.0 W/m2 CLR
12:08 12.2 °C -0.3 °C 1020.2 hPa Calm     42 % 0.0 mm 464.0 W/m2 CLR
12:13 12.8 °C 0.2 °C 1020.2 hPa East 5.6 km/h 5.6 km/h 42 % 0.0 mm 468.0 W/m2 CLR
12:18 12.8 °C -0.2 °C 1019.9 hPa East 5.6 km/h 5.6 km/h 41 % 0.0 mm 469.0 W/m2 CLR
12:23 12.8 °C -0.2 °C 1019.9 hPa East 1.9 km/h   41 % 0.0 mm 471.0 W/m2 CLR
12:28 13.3 °C 0.7 °C 1019.9 hPa East 6.4 km/h 6.4 km/h 42 % 0.0 mm 473.0 W/m2 CLR
12:33 13.3 °C 0.7 °C 1019.9 hPa East 5.6 km/h 5.6 km/h 42 % 0.0 mm 475.0 W/m2 CLR
12:38 13.3 °C 0.7 °C 1019.5 hPa ENE 5.6 km/h 5.6 km/h 42 % 0.0 mm 475.0 W/m2 CLR
12:43 13.3 °C 0.7 °C 1019.5 hPa ENE 5.6 km/h 5.6 km/h 42 % 0.0 mm 476.0 W/m2 CLR
12:48 13.3 °C 0.3 °C 1019.5 hPa ENE 4.8 km/h 4.8 km/h 41 % 0.0 mm 476.0 W/m2 CLR
12:59 13.9 °C 0.8 °C 1019.5 hPa East 4.8 km/h 4.8 km/h 41 % 0.0 mm 475.0 W/m2 CLR
13:04 13.9 °C 0.8 °C 1019.5 hPa East 3.7 km/h 3.7 km/h 41 % 0.0 mm 473.0 W/m2 CLR
13:09 13.9 °C 0.8 °C 1019.2 hPa East 5.6 km/h 5.6 km/h 41 % 0.0 mm 471.0 W/m2 CLR
13:14 13.9 °C 0.5 °C 1019.2 hPa ENE 5.6 km/h 5.6 km/h 40 % 0.0 mm 469.0 W/m2 CLR
13:19 13.9 °C 0.5 °C 1019.2 hPa East 5.6 km/h 5.6 km/h 40 % 0.0 mm 468.0 W/m2 CLR
13:24 14.4 °C 1.0 °C 1019.2 hPa ENE 3.7 km/h 3.7 km/h 40 % 0.0 mm 468.0 W/m2 CLR
13:34 14.4 °C 0.3 °C 1018.8 hPa East 5.6 km/h 5.6 km/h 38 % 0.0 mm 462.0 W/m2 CLR
13:44 15.0 °C 0.4 °C 1018.8 hPa East 5.6 km/h 5.6 km/h 37 % 0.0 mm 455.0 W/m2 CLR
13:49 15.6 °C 0.9 °C 1018.8 hPa ENE 5.6 km/h 5.6 km/h 37 % 0.0 mm 450.0 W/m2 CLR
13:54 15.6 °C 0.5 °C 1018.5 hPa ENE 3.7 km/h 3.7 km/h 36 % 0.0 mm 446.0 W/m2 CLR
13:59 15.6 °C 0.1 °C 1018.5 hPa ENE 5.6 km/h 5.6 km/h 35 % 0.0 mm 441.0 W/m2 CLR
14:04 15.6 °C 0.1 °C 1018.5 hPa ENE 5.6 km/h 5.6 km/h 35 % 0.0 mm 434.0 W/m2 CLR
14:14 15.6 °C 0.1 °C 1018.5 hPa ENE 5.6 km/h 5.6 km/h 35 % 0.0 mm 422.0 W/m2 CLR
14:29 16.1 °C 0.2 °C 1018.5 hPa NNE 5.6 km/h 5.6 km/h 34 % 0.0 mm 401.0 W/m2 CLR
14:34 16.1 °C 0.2 °C 1018.5 hPa NE 5.6 km/h 5.6 km/h 34 % 0.0 mm 392.0 W/m2 CLR
14:39 16.1 °C -0.2 °C 1018.5 hPa NE 5.6 km/h 5.6 km/h 33 % 0.0 mm 385.0 W/m2 CLR
14:49 16.1 °C -0.2 °C 1018.2 hPa East 5.6 km/h 5.6 km/h 33 % 0.0 mm 366.0 W/m2 CLR
14:54 16.1 °C -0.2 °C 1018.2 hPa East 5.6 km/h 5.6 km/h 33 % 0.0 mm 359.0 W/m2 CLR
14:55 16.1 °C -0.2 °C 1018.2 hPa ENE 8.0 km/h 8.0 km/h 33 % 0.0 mm 355.0 W/m2 CLR
15:00 16.1 °C 0.2 °C 1018.2 hPa East 5.6 km/h 5.6 km/h 34 % 0.0 mm 346.0 W/m2 CLR
15:05 16.1 °C 0.2 °C 1018.2 hPa ENE 5.6 km/h 5.6 km/h 34 % 0.0 mm 336.0 W/m2 CLR
15:10 16.1 °C 0.6 °C 1018.2 hPa ENE 5.6 km/h   35 % 0.0 mm 327.0 W/m2 CLR
15:15 16.1 °C 1.0 °C 1018.2 hPa Calm     36 % 0.0 mm 315.0 W/m2 CLR
15:20 16.1 °C 1.0 °C 1018.2 hPa ENE 1.9 km/h 1.9 km/h 36 % 0.0 mm 302.0 W/m2 CLR
15:30 16.1 °C 1.4 °C 1018.2 hPa Calm   0.6 km/h 37 % 0.0 mm 281.0 W/m2 CLR
15:35 16.1 °C 1.0 °C 1018.2 hPa ENE 5.6 km/h 5.6 km/h 36 % 0.0 mm 267.0 W/m2 CLR
15:41 16.1 °C 1.4 °C 1018.2 hPa Calm     37 % 0.0 mm 251.0 W/m2 CLR
15:46 16.1 °C 1.4 °C 1018.2 hPa Calm     37 % 0.0 mm 236.0 W/m2 CLR
15:56 15.6 °C 0.9 °C 1018.2 hPa Calm     37 % 0.0 mm 207.0 W/m2 CLR
16:01 15.6 °C 0.9 °C 1018.2 hPa ENE 3.7 km/h 3.7 km/h 37 % 0.0 mm 193.0 W/m2 CLR
16:06 15.6 °C 0.9 °C 1018.2 hPa Calm     37 % 0.0 mm 174.0 W/m2 CLR
16:11 15.0 °C 0.8 °C 1018.2 hPa Calm     38 % 0.0 mm 160.0 W/m2 CLR
16:16 15.0 °C 0.8 °C 1018.2 hPa Calm     38 % 0.0 mm 146.0 W/m2 CLR
16:21 15.0 °C 0.8 °C 1018.2 hPa Calm     38 % 0.0 mm 130.0 W/m2 CLR
16:27 15.0 °C 0.4 °C 1018.2 hPa Calm     37 % 0.0 mm 114.0 W/m2 CLR
16:37 13.9 °C -0.2 °C 1018.2 hPa Calm     38 % 0.0 mm 86.0 W/m2 CLR
16:42 13.3 °C -0.7 °C 1018.2 hPa Calm     38 % 0.0 mm 72.0 W/m2 FEW
16:52 11.7 °C -2.2 °C 1018.2 hPa Calm     38 % 0.0 mm 49.0 W/m2 SCT
16:57 11.1 °C -3.1 °C 1018.2 hPa Calm     37 % 0.0 mm 40.0 W/m2 BKN
17:02 10.6 °C -3.6 °C 1018.2 hPa Calm     37 % 0.0 mm 33.0 W/m2 BKN
17:12 9.4 °C -4.2 °C 1018.2 hPa Calm     38 % 0.0 mm 18.0 W/m2 BKN
17:17 8.9 °C -4.7 °C 1018.2 hPa Calm     38 % 0.0 mm 14.0 W/m2 BKN
17:22 8.9 °C -4.7 °C 1018.2 hPa Calm     38 % 0.0 mm 12.0 W/m2 BKN
17:27 8.9 °C -4.3 °C 1018.2 hPa Calm     39 % 0.0 mm 9.0 W/m2 BKN
17:37 8.9 °C -3.7 °C 1018.2 hPa Calm     41 % 0.0 mm 0.0 W/m2 OVC
17:42 8.3 °C -4.2 °C 1018.2 hPa Calm     41 % 0.0 mm 0.0 W/m2 OVC
17:47 8.3 °C -3.8 °C 1018.2 hPa Calm     42 % 0.0 mm 0.0 W/m2 CLR
17:52 8.9 °C -3.1 °C 1017.8 hPa Calm     43 % 0.0 mm 0.0 W/m2 CLR
17:57 8.9 °C -2.7 °C 1017.8 hPa Calm     44 % 0.0 mm 0.0 W/m2 CLR
18:07 8.3 °C -2.6 °C 1017.8 hPa Calm     46 % 0.0 mm 0.0 W/m2 CLR
18:12 7.8 °C -2.8 °C 1017.8 hPa Calm     47 % 0.0 mm 0.0 W/m2 CLR
18:17 7.2 °C -3.1 °C 1017.8 hPa Calm     48 % 0.0 mm 0.0 W/m2 CLR
18:22 6.7 °C -3.1 °C 1017.8 hPa Calm     50 % 0.0 mm 0.0 W/m2 CLR
18:32 6.7 °C -2.5 °C 1017.8 hPa Calm     52 % 0.0 mm 0.0 W/m2 CLR
18:37 6.1 °C -2.8 °C 1017.8 hPa Calm     53 % 0.0 mm 0.0 W/m2 CLR
18:52 5.0 °C -3.6 °C 1017.8 hPa Calm     54 % 0.0 mm 0.0 W/m2 CLR
18:57 5.0 °C -3.1 °C 1017.8 hPa Calm     56 % 0.0 mm 0.0 W/m2 CLR
19:02 5.0 °C -3.1 °C 1017.8 hPa Calm     56 % 0.0 mm 0.0 W/m2 CLR
19:07 5.0 °C -2.8 °C 1017.8 hPa Calm     57 % 0.0 mm 0.0 W/m2 CLR
19:17 4.4 °C -3.3 °C 1017.8 hPa Calm     57 % 0.0 mm 0.0 W/m2 CLR
19:27 4.4 °C -2.7 °C 1017.8 hPa Calm     60 % 0.0 mm 0.0 W/m2 CLR
19:32 4.4 °C -2.7 °C 1017.8 hPa Calm     60 % 0.0 mm 0.0 W/m2 CLR
19:33 4.4 °C -2.7 °C 1017.8 hPa Calm     60 % 0.0 mm 0.0 W/m2 CLR
19:38 3.9 °C -3.2 °C 1017.8 hPa Calm     60 % 0.0 mm 0.0 W/m2 CLR
19:43 3.9 °C -2.9 °C 1017.8 hPa Calm     61 % 0.0 mm 0.0 W/m2 CLR
19:48 3.3 °C -3.5 °C 1017.8 hPa Calm     61 % 0.0 mm 0.0 W/m2 CLR
19:58 3.3 °C -3.3 °C 1017.8 hPa Calm     62 % 0.0 mm 0.0 W/m2 CLR
20:03 2.8 °C -3.8 °C 1017.8 hPa Calm     62 % 0.0 mm 0.0 W/m2 CLR
20:15 2.8 °C -3.6 °C 1017.8 hPa Calm     63 % 0.0 mm 0.0 W/m2 CLR
20:20 2.8 °C -3.2 °C 1017.8 hPa Calm     65 % 0.0 mm 0.0 W/m2 CLR
20:40 3.3 °C -2.4 °C 1018.2 hPa Calm     66 % 0.0 mm 0.0 W/m2 CLR
20:45 2.8 °C -2.7 °C 1018.2 hPa Calm     67 % 0.0 mm 0.0 W/m2 CLR
20:50 2.8 °C -2.7 °C 1018.2 hPa Calm     67 % 0.0 mm 0.0 W/m2 CLR
20:55 2.2 °C -3.1 °C 1018.2 hPa Calm     68 % 0.0 mm 0.0 W/m2 CLR
21:05 1.7 °C -3.6 °C 1018.2 hPa Calm     68 % 0.0 mm 0.0 W/m2 CLR
21:10 1.7 °C -3.6 °C 1018.2 hPa Calm     68 % 0.0 mm 0.0 W/m2 CLR
21:20 1.1 °C -3.9 °C 1018.5 hPa Calm     69 % 0.0 mm 0.0 W/m2 CLR
21:25 1.1 °C -4.6 °C 1018.5 hPa Calm     66 % 0.0 mm 0.0 W/m2 CLR
21:30 1.1 °C -4.3 °C 1018.5 hPa Calm     67 % 0.0 mm 0.0 W/m2 CLR
21:35 1.1 °C -3.9 °C 1018.5 hPa Calm     69 % 0.0 mm 0.0 W/m2 CLR
21:40 1.1 °C -3.9 °C 1018.5 hPa Calm     69 % 0.0 mm 0.0 W/m2 CLR
21:45 1.1 °C -3.9 °C 1018.5 hPa Calm     69 % 0.0 mm 0.0 W/m2 CLR
21:50 1.1 °C -3.6 °C 1018.5 hPa Calm     71 % 0.0 mm 0.0 W/m2 CLR
21:55 1.1 °C -3.6 °C 1018.5 hPa Calm     71 % 0.0 mm 0.0 W/m2 CLR
22:00 1.1 °C -3.2 °C 1018.8 hPa Calm     73 % 0.0 mm 0.0 W/m2 CLR
22:05 1.1 °C -3.2 °C 1018.5 hPa Calm     73 % 0.0 mm 0.0 W/m2 CLR
22:10 0.6 °C -3.6 °C 1018.8 hPa Calm     74 % 0.0 mm 0.0 W/m2 CLR
22:15 0.6 °C -3.4 °C 1018.8 hPa Calm     75 % 0.0 mm 0.0 W/m2 CLR
22:20 0.0 °C -4.1 °C 1018.8 hPa Calm     74 % 0.0 mm 0.0 W/m2 CLR
22:25 0.0 °C -4.3 °C 1018.8 hPa Calm     73 % 0.0 mm 0.0 W/m2 CLR
22:30 -0.6 °C -4.8 °C 1018.8 hPa Calm     73 % 0.0 mm 0.0 W/m2 CLR
22:35 0.0 °C -4.4 °C 1019.2 hPa Calm     72 % 0.0 mm 0.0 W/m2 CLR
22:40 0.0 °C -4.4 °C 1019.2 hPa Calm     72 % 0.0 mm 0.0 W/m2 CLR
22:45 0.6 °C -3.6 °C 1019.2 hPa Calm     74 % 0.0 mm 0.0 W/m2 CLR
22:55 0.6 °C -3.4 °C 1018.8 hPa Calm     75 % 0.0 mm 0.0 W/m2 CLR
23:00 0.6 °C -3.4 °C 1019.2 hPa Calm     75 % 0.0 mm 0.0 W/m2 CLR
23:05 0.0 °C -4.1 °C 1019.2 hPa Calm     74 % 0.0 mm 0.0 W/m2 CLR
23:10 0.0 °C -4.3 °C 1018.8 hPa Calm     73 % 0.0 mm 0.0 W/m2 CLR
23:15 0.0 °C -4.3 °C 1018.8 hPa Calm     73 % 0.0 mm 0.0 W/m2 CLR
23:20 -0.6 °C -4.6 °C 1018.8 hPa Calm     74 % 0.0 mm 0.0 W/m2 CLR
23:25 -0.6 °C -4.6 °C 1018.8 hPa Calm     74 % 0.0 mm 0.0 W/m2 CLR
23:30 -0.6 °C -4.6 °C 1019.2 hPa Calm     74 % 0.0 mm 0.0 W/m2 CLR
23:35 -0.6 °C -4.8 °C 1019.2 hPa Calm     73 % 0.0 mm 0.0 W/m2 CLR
23:45 -1.1 °C -5.3 °C 1019.2 hPa Calm     73 % 0.0 mm 0.0 W/m2 CLR
23:50 -1.1 °C -5.2 °C 1019.2 hPa Calm     74 % 0.0 mm 0.0 W/m2 CLR
23:51 -1.1 °C -5.2 °C 1019.2 hPa Calm     74 % 0.0 mm 0.0 W/m2 CLR
23:56 -1.1 °C -5.2 °C 1019.2 hPa Calm     74 % 0.0 mm 0.0 W/m2 CLR
Lo Temps de Massalio
Compliments of Weather Underground - 1 mb